createdAt,value
2022-11-22T00:00:47.308Z,24.45
2022-11-22T00:01:28.333Z,22.26
2022-11-22T00:02:08.342Z,22.02
2022-11-22T00:02:48.370Z,21.71
2022-11-22T00:03:28.255Z,21.15
2022-11-22T00:04:08.334Z,21.01
2022-11-22T00:04:48.262Z,21.08
2022-11-22T00:05:28.321Z,20.95
2022-11-22T00:06:09.321Z,22.04
2022-11-22T00:06:49.395Z,22.79
2022-11-22T00:07:29.351Z,22.31
2022-11-22T00:08:10.364Z,22.16
2022-11-22T00:08:51.321Z,21.84
2022-11-22T00:09:31.515Z,21.89
2022-11-22T00:10:17.269Z,22.42
2022-11-22T00:10:58.322Z,22.63
2022-11-22T00:11:38.297Z,22.76
2022-11-22T00:12:18.322Z,22.91
2022-11-22T00:12:58.273Z,22.36
2022-11-22T00:13:38.439Z,22.16
2022-11-22T00:14:18.275Z,22.48
2022-11-22T00:14:58.340Z,22.61
2022-11-22T00:15:39.278Z,22.74
2022-11-22T00:16:19.312Z,22.13
2022-11-22T00:16:59.295Z,22.60
2022-11-22T00:17:40.369Z,22.50
2022-11-22T00:18:20.244Z,22.96
2022-11-22T00:19:14.272Z,23.51
2022-11-22T00:20:08.277Z,23.61
2022-11-22T00:21:02.257Z,23.67
2022-11-22T00:21:56.266Z,24.69
2022-11-22T00:22:44.056Z,24.04
2022-11-22T00:23:25.316Z,23.35
2022-11-22T00:24:06.259Z,24.10
2022-11-22T00:24:46.377Z,23.13
2022-11-22T00:25:26.273Z,21.77
2022-11-22T00:26:11.776Z,22.94
2022-11-22T00:26:51.258Z,22.96
2022-11-22T00:27:31.288Z,23.61
2022-11-22T00:28:11.283Z,23.58
2022-11-22T00:28:51.348Z,23.45
2022-11-22T00:29:31.447Z,22.66
2022-11-22T00:30:12.308Z,22.13
2022-11-22T00:30:53.272Z,21.31
2022-11-22T00:31:33.280Z,20.41
2022-11-22T00:32:13.253Z,20.70
2022-11-22T00:32:54.380Z,20.70
2022-11-22T00:33:35.273Z,20.58
2022-11-22T00:34:15.318Z,19.30
2022-11-22T00:34:55.258Z,17.61
2022-11-22T00:35:37.332Z,16.52
2022-11-22T00:36:18.241Z,16.23
2022-11-22T00:36:58.305Z,17.20
2022-11-22T00:37:39.243Z,17.39
2022-11-22T00:38:19.276Z,17.08
2022-11-22T00:39:00.270Z,17.56
2022-11-22T00:39:40.302Z,16.05
2022-11-22T00:40:20.263Z,14.55
2022-11-22T00:41:00.287Z,14.13
2022-11-22T00:41:40.232Z,14.88
2022-11-22T00:42:20.318Z,15.48
2022-11-22T00:43:01.225Z,15.38
2022-11-22T00:43:41.348Z,14.96
2022-11-22T00:44:21.262Z,15.65
2022-11-22T00:45:01.331Z,15.71
2022-11-22T00:45:41.289Z,15.57
2022-11-22T00:46:21.297Z,15.69
2022-11-22T00:47:02.258Z,15.41
2022-11-22T00:47:43.276Z,15.20
2022-11-22T00:48:23.247Z,15.02
2022-11-22T00:49:03.280Z,14.48
2022-11-22T00:49:43.232Z,13.48
2022-11-22T00:50:23.243Z,14.02
2022-11-22T00:51:03.216Z,14.54
2022-11-22T00:51:43.271Z,13.70
2022-11-22T00:52:24.227Z,12.73
2022-11-22T00:53:04.371Z,12.71
2022-11-22T00:53:44.227Z,13.50
2022-11-22T00:54:24.285Z,14.00
2022-11-22T00:55:04.278Z,14.69
2022-11-22T00:55:44.259Z,15.73
2022-11-22T00:56:24.214Z,16.17
2022-11-22T00:57:05.247Z,16.98
2022-11-22T00:57:45.211Z,18.42
2022-11-22T00:58:25.321Z,18.64
2022-11-22T00:59:06.235Z,17.63
2022-11-22T00:59:46.395Z,16.64
2022-11-22T01:00:27.239Z,16.83
2022-11-22T01:01:07.306Z,17.33
2022-11-22T01:01:48.214Z,16.14
2022-11-22T01:02:28.284Z,15.67
2022-11-22T01:03:08.200Z,16.56
2022-11-22T01:03:48.260Z,16.09
2022-11-22T01:04:28.217Z,14.98
2022-11-22T01:05:08.275Z,14.98
2022-11-22T01:05:48.262Z,15.81
2022-11-22T01:06:28.269Z,15.27
2022-11-22T01:07:08.278Z,15.40
2022-11-22T01:08:02.249Z,15.11
2022-11-22T01:08:56.235Z,14.71
2022-11-22T01:09:50.206Z,14.76
2022-11-22T01:10:44.183Z,14.39
2022-11-22T01:11:26.266Z,14.27
2022-11-22T01:12:06.284Z,14.21
2022-11-22T01:12:46.228Z,14.43
2022-11-22T01:13:26.269Z,14.20
2022-11-22T01:14:07.195Z,13.95
2022-11-22T01:14:47.244Z,14.32
2022-11-22T01:15:27.192Z,14.79
2022-11-22T01:16:14.403Z,15.02
2022-11-22T01:16:55.236Z,15.24
2022-11-22T01:17:35.214Z,15.13
2022-11-22T01:18:15.207Z,15.10
2022-11-22T01:18:55.289Z,14.65
2022-11-22T01:19:36.211Z,14.96
2022-11-22T01:20:17.281Z,14.84
2022-11-22T01:20:58.212Z,14.94
2022-11-22T01:21:38.271Z,14.88
2022-11-22T01:22:20.213Z,14.84
2022-11-22T01:23:00.251Z,14.55
2022-11-22T01:23:41.196Z,14.54
2022-11-22T01:24:21.239Z,14.36
2022-11-22T01:25:01.266Z,14.49
2022-11-22T01:25:42.329Z,14.59
2022-11-22T01:26:22.220Z,14.04
2022-11-22T01:27:02.264Z,13.86
2022-11-22T01:27:43.218Z,14.20
2022-11-22T01:28:24.242Z,13.46
2022-11-22T01:29:04.180Z,12.76
2022-11-22T01:29:44.238Z,12.26
2022-11-22T01:30:25.162Z,12.16
2022-11-22T01:31:05.203Z,12.74
2022-11-22T01:31:45.230Z,13.04
2022-11-22T01:32:25.436Z,13.31
2022-11-22T01:33:05.212Z,13.30
2022-11-22T01:33:45.293Z,13.05
2022-11-22T01:34:25.200Z,12.35
2022-11-22T01:35:06.245Z,12.63
2022-11-22T01:35:46.172Z,12.90
2022-11-22T01:36:26.240Z,13.31
2022-11-22T01:37:06.169Z,13.32
2022-11-22T01:37:46.256Z,12.75
2022-11-22T01:38:26.217Z,12.61
2022-11-22T01:39:06.292Z,12.59
2022-11-22T01:39:47.171Z,12.10
2022-11-22T01:40:27.280Z,11.90
2022-11-22T01:41:07.203Z,11.95
2022-11-22T01:41:47.217Z,11.82
2022-11-22T01:42:27.157Z,11.51
2022-11-22T01:43:08.208Z,11.46
2022-11-22T01:43:48.204Z,11.44
2022-11-22T01:44:36.289Z,11.16
2022-11-22T01:45:38.190Z,11.38
2022-11-22T01:46:46.326Z,10.94
2022-11-22T01:47:29.163Z,10.44
2022-11-22T01:48:30.229Z,10.93
2022-11-22T01:49:24.165Z,11.10
2022-11-22T01:50:08.185Z,11.15
2022-11-22T01:50:51.208Z,10.69
2022-11-22T01:51:43.215Z,10.80
2022-11-22T01:52:26.159Z,10.98
2022-11-22T01:53:26.234Z,11.24
2022-11-22T01:54:13.219Z,11.51
2022-11-22T01:55:02.172Z,11.49
2022-11-22T01:55:37.346Z,11.43
2022-11-22T01:56:26.327Z,11.00
2022-11-22T01:57:06.296Z,10.68
2022-11-22T01:57:54.151Z,10.85
2022-11-22T01:58:28.204Z,10.79
2022-11-22T01:59:21.176Z,10.75
2022-11-22T02:00:00.365Z,11.00
2022-11-22T02:00:41.282Z,10.93
2022-11-22T02:01:21.296Z,10.59
2022-11-22T02:02:02.147Z,11.04
2022-11-22T02:02:43.210Z,11.70
2022-11-22T02:03:24.157Z,11.68
2022-11-22T02:04:06.227Z,11.22
2022-11-22T02:04:47.157Z,11.52
2022-11-22T02:05:31.246Z,11.31
2022-11-22T02:06:12.179Z,11.31
2022-11-22T02:07:22.257Z,11.44
2022-11-22T02:08:18.158Z,12.00
2022-11-22T02:09:07.183Z,12.13
2022-11-22T02:09:48.175Z,12.14
2022-11-22T02:10:30.199Z,12.63
2022-11-22T02:11:11.157Z,12.44
2022-11-22T02:11:57.164Z,12.98
2022-11-22T02:12:35.204Z,12.90
2022-11-22T02:13:23.143Z,12.43
2022-11-22T02:13:58.172Z,12.14
2022-11-22T02:14:46.131Z,12.27
2022-11-22T02:15:20.261Z,12.18
2022-11-22T02:16:07.146Z,11.82
2022-11-22T02:16:49.188Z,11.82
2022-11-22T02:17:43.154Z,11.95
2022-11-22T02:18:37.141Z,12.55
2022-11-22T02:20:06.139Z,12.32
2022-11-22T02:21:00.160Z,12.48
2022-11-22T02:21:54.135Z,12.95
2022-11-22T02:23:21.143Z,13.10
2022-11-22T02:24:33.159Z,13.31
2022-11-22T02:25:54.127Z,13.49
2022-11-22T02:26:48.116Z,13.43
2022-11-22T02:27:28.127Z,13.18
2022-11-22T02:28:08.173Z,14.15
2022-11-22T02:28:49.158Z,14.19
2022-11-22T02:29:29.382Z,13.65
2022-11-22T02:30:09.129Z,13.93
2022-11-22T02:30:49.209Z,14.25
2022-11-22T02:31:51.127Z,14.01
2022-11-22T02:32:38.124Z,14.24
2022-11-22T02:33:32.133Z,14.06
2022-11-22T02:34:27.129Z,13.98
2022-11-22T02:35:42.102Z,14.31
2022-11-22T02:36:36.115Z,14.70
2022-11-22T02:37:39.137Z,18.61
2022-11-22T02:38:44.125Z,25.33
2022-11-22T02:39:42.144Z,24.24
2022-11-22T02:40:37.139Z,19.71
2022-11-22T02:41:31.110Z,19.74
2022-11-22T02:42:26.113Z,17.45
2022-11-22T02:43:14.140Z,15.96
2022-11-22T02:43:54.201Z,15.16
2022-11-22T02:44:34.117Z,15.09
2022-11-22T02:45:15.143Z,15.10
2022-11-22T02:45:55.114Z,14.90
2022-11-22T02:46:35.265Z,15.25
2022-11-22T02:47:16.128Z,15.76
2022-11-22T02:47:57.142Z,15.43
2022-11-22T02:48:37.119Z,15.77
2022-11-22T02:49:17.322Z,16.73
2022-11-22T02:50:00.119Z,17.02
2022-11-22T02:50:40.197Z,16.85
2022-11-22T02:51:23.086Z,16.79
2022-11-22T02:52:03.138Z,16.90
2022-11-22T02:52:44.098Z,17.04
2022-11-22T02:53:24.164Z,17.39
2022-11-22T02:54:05.136Z,17.60
2022-11-22T02:54:45.221Z,17.50
2022-11-22T02:55:25.104Z,17.70
2022-11-22T02:56:05.222Z,17.98
2022-11-22T02:56:45.131Z,18.26
2022-11-22T02:57:25.160Z,18.00
2022-11-22T02:58:05.101Z,17.83
2022-11-22T02:58:45.134Z,18.21
2022-11-22T02:59:26.106Z,17.99
2022-11-22T03:00:06.126Z,18.30
2022-11-22T03:00:47.198Z,17.63
2022-11-22T03:01:27.127Z,17.77
2022-11-22T03:02:08.120Z,18.13
2022-11-22T03:02:48.161Z,18.09
2022-11-22T03:03:28.103Z,18.23
2022-11-22T03:04:08.145Z,18.59
2022-11-22T03:04:48.128Z,18.41
2022-11-22T03:05:28.166Z,18.04
2022-11-22T03:06:09.145Z,17.76
2022-11-22T03:06:51.649Z,17.91
2022-11-22T03:07:32.160Z,18.21
2022-11-22T03:08:12.177Z,18.80
2022-11-22T03:08:56.734Z,19.01
2022-11-22T03:09:38.147Z,18.73
2022-11-22T03:10:19.148Z,19.08
2022-11-22T03:10:59.211Z,19.08
2022-11-22T03:11:40.070Z,18.98
2022-11-22T03:12:20.163Z,18.89
2022-11-22T03:13:01.108Z,19.46
2022-11-22T03:13:41.197Z,19.69
2022-11-22T03:14:23.075Z,19.36
2022-11-22T03:15:03.180Z,19.63
2022-11-22T03:15:43.108Z,19.36
2022-11-22T03:16:23.123Z,19.27
2022-11-22T03:17:03.083Z,19.76
2022-11-22T03:17:43.198Z,20.67
2022-11-22T03:18:23.083Z,20.44
2022-11-22T03:19:03.257Z,20.11
2022-11-22T03:19:44.071Z,20.27
2022-11-22T03:20:24.366Z,20.14
2022-11-22T03:21:10.069Z,21.04
2022-11-22T03:21:51.208Z,21.05
2022-11-22T03:22:32.060Z,20.59
2022-11-22T03:23:12.127Z,20.33
2022-11-22T03:23:52.075Z,19.50
2022-11-22T03:24:32.129Z,20.04
2022-11-22T03:25:14.115Z,20.85
2022-11-22T03:25:54.089Z,20.69
2022-11-22T03:26:34.063Z,20.65
2022-11-22T03:27:14.080Z,20.67
2022-11-22T03:27:55.118Z,20.79
2022-11-22T03:28:35.176Z,21.02
2022-11-22T03:29:15.054Z,20.61
2022-11-22T03:29:55.147Z,21.05
2022-11-22T03:30:36.066Z,20.88
2022-11-22T03:31:16.097Z,20.66
2022-11-22T03:31:57.079Z,21.38
2022-11-22T03:32:37.134Z,21.30
2022-11-22T03:33:18.068Z,21.06
2022-11-22T03:33:58.110Z,20.96
2022-11-22T03:34:39.106Z,20.91
2022-11-22T03:35:20.191Z,20.76
2022-11-22T03:36:04.108Z,21.02
2022-11-22T03:36:44.212Z,20.67
2022-11-22T03:37:24.086Z,20.86
2022-11-22T03:38:04.235Z,20.69
2022-11-22T03:38:45.050Z,21.04
2022-11-22T03:39:25.197Z,21.44
2022-11-22T03:40:06.090Z,20.88
2022-11-22T03:40:46.093Z,20.67
2022-11-22T03:41:27.075Z,20.41
2022-11-22T03:42:07.197Z,20.59
2022-11-22T03:42:47.072Z,20.84
2022-11-22T03:43:28.320Z,21.30
2022-11-22T03:44:09.053Z,20.38
2022-11-22T03:44:49.121Z,20.92
2022-11-22T03:45:30.074Z,21.94
2022-11-22T03:46:10.304Z,22.13
2022-11-22T03:46:50.026Z,21.92
2022-11-22T03:47:30.145Z,21.91
2022-11-22T03:48:11.079Z,23.30
2022-11-22T03:48:52.183Z,22.83
2022-11-22T03:49:33.364Z,22.69
2022-11-22T03:50:15.079Z,23.66
2022-11-22T03:50:55.108Z,24.26
2022-11-22T03:51:36.451Z,24.04
2022-11-22T03:52:17.039Z,24.09
2022-11-22T03:52:57.112Z,25.09
2022-11-22T03:53:37.043Z,24.96
2022-11-22T03:54:18.073Z,24.15
2022-11-22T03:54:59.077Z,24.39
2022-11-22T03:55:40.245Z,24.67
2022-11-22T03:56:20.053Z,23.76
2022-11-22T03:57:00.232Z,24.02
2022-11-22T03:57:40.029Z,24.52
2022-11-22T03:58:20.065Z,24.31
2022-11-22T03:59:01.083Z,24.30
2022-11-22T03:59:41.128Z,25.25
2022-11-22T04:00:22.025Z,25.19
2022-11-22T04:01:03.326Z,24.99
2022-11-22T04:01:44.141Z,25.13
2022-11-22T04:02:24.072Z,25.58
2022-11-22T04:03:04.028Z,25.73
2022-11-22T04:03:44.125Z,25.60
2022-11-22T04:04:25.097Z,25.40
2022-11-22T04:05:05.099Z,24.99
2022-11-22T04:05:45.032Z,25.05
2022-11-22T04:06:25.162Z,26.07
2022-11-22T04:07:05.092Z,25.91
2022-11-22T04:07:45.224Z,25.79
2022-11-22T04:08:26.009Z,26.00
2022-11-22T04:09:06.139Z,25.84
2022-11-22T04:09:47.179Z,25.92
2022-11-22T04:10:27.182Z,26.24
2022-11-22T04:11:08.027Z,26.64
2022-11-22T04:11:48.161Z,26.09
2022-11-22T04:12:28.033Z,26.46
2022-11-22T04:13:09.085Z,27.46
2022-11-22T04:14:08.055Z,26.89
2022-11-22T04:15:13.075Z,27.00
2022-11-22T04:16:10.073Z,26.59
2022-11-22T04:17:04.017Z,26.91
2022-11-22T04:18:00.004Z,27.33
2022-11-22T04:18:54.010Z,26.79
2022-11-22T04:20:08.095Z,27.67
2022-11-22T04:21:07.025Z,27.06
2022-11-22T04:22:01.073Z,26.70
2022-11-22T04:22:55.035Z,26.81
2022-11-22T04:23:50.022Z,26.33
2022-11-22T04:25:02.002Z,26.16
2022-11-22T04:26:05.979Z,25.65
2022-11-22T04:26:47.053Z,25.23
2022-11-22T04:27:27.039Z,25.33
2022-11-22T04:28:08.083Z,25.13
2022-11-22T04:29:08.746Z,25.16
2022-11-22T04:29:49.006Z,24.80
2022-11-22T04:30:48.811Z,24.81
2022-11-22T04:31:48.041Z,25.42
2022-11-22T04:32:47.577Z,24.48
2022-11-22T04:33:30.016Z,24.71
2022-11-22T04:34:10.069Z,24.45
2022-11-22T04:34:50.000Z,23.88
2022-11-22T04:35:30.148Z,24.08
2022-11-22T04:36:13.425Z,24.65
2022-11-22T04:37:01.172Z,24.25
2022-11-22T04:37:55.991Z,23.65
2022-11-22T04:38:50.039Z,23.08
2022-11-22T04:39:44.104Z,23.19
2022-11-22T04:40:38.040Z,23.01
2022-11-22T04:41:31.990Z,23.05
2022-11-22T04:42:53.994Z,23.45
2022-11-22T04:43:53.691Z,22.92
2022-11-22T04:44:46.975Z,22.86
2022-11-22T04:45:21.093Z,23.04
2022-11-22T04:46:08.988Z,23.73
2022-11-22T04:46:43.072Z,24.04
2022-11-22T04:47:50.497Z,23.13
2022-11-22T04:48:31.995Z,23.86
2022-11-22T04:49:25.999Z,24.24
2022-11-22T04:50:41.119Z,25.06
2022-11-22T04:51:53.006Z,26.26
2022-11-22T04:53:01.992Z,26.61
2022-11-22T04:53:51.004Z,25.15
2022-11-22T04:54:25.039Z,25.05
2022-11-22T04:55:12.983Z,24.65
2022-11-22T04:55:47.071Z,24.54
2022-11-22T04:56:33.985Z,24.35
2022-11-22T04:57:07.986Z,24.94
2022-11-22T04:57:59.642Z,24.80
2022-11-22T04:58:34.021Z,24.58
2022-11-22T04:59:14.985Z,24.58
2022-11-22T04:59:55.031Z,24.95
2022-11-22T05:00:36.997Z,25.05
2022-11-22T05:01:18.409Z,25.67
2022-11-22T05:01:59.983Z,24.64
2022-11-22T05:02:40.068Z,24.96
2022-11-22T05:03:19.978Z,25.65
2022-11-22T05:04:01.065Z,25.41
2022-11-22T05:04:45.113Z,25.85
2022-11-22T05:05:31.334Z,26.50
2022-11-22T05:06:11.958Z,26.21
2022-11-22T05:06:52.033Z,25.85
2022-11-22T05:07:33.001Z,25.92
2022-11-22T05:08:14.046Z,26.88
2022-11-22T05:08:54.981Z,27.58
2022-11-22T05:09:36.102Z,27.14
2022-11-22T05:10:21.334Z,26.94
2022-11-22T05:11:05.048Z,26.67
2022-11-22T05:11:44.972Z,26.64
2022-11-22T05:12:25.105Z,26.70
2022-11-22T05:13:04.964Z,26.84
2022-11-22T05:13:47.034Z,27.30
2022-11-22T05:14:27.948Z,27.46
2022-11-22T05:15:09.024Z,28.49
2022-11-22T05:15:49.954Z,27.95
2022-11-22T05:16:30.100Z,27.99
2022-11-22T05:17:13.352Z,28.06
2022-11-22T05:17:54.094Z,28.35
2022-11-22T05:18:35.988Z,28.80
2022-11-22T05:19:16.989Z,28.31
2022-11-22T05:19:56.964Z,28.13
2022-11-22T05:20:37.018Z,28.86
2022-11-22T05:21:19.969Z,28.52
2022-11-22T05:22:01.047Z,28.61
2022-11-22T05:22:59.964Z,28.71
2022-11-22T05:23:55.273Z,28.95
2022-11-22T05:24:35.924Z,29.04
2022-11-22T05:25:15.970Z,30.45
2022-11-22T05:25:55.928Z,29.52
2022-11-22T05:26:41.950Z,29.67
2022-11-22T05:27:16.104Z,30.30
2022-11-22T05:28:02.962Z,30.38
2022-11-22T05:28:39.437Z,30.14
2022-11-22T05:29:25.940Z,30.51
2022-11-22T05:30:00.046Z,31.39
2022-11-22T05:30:47.959Z,30.95
2022-11-22T05:31:28.263Z,31.14
2022-11-22T05:32:09.001Z,32.45
2022-11-22T05:32:49.095Z,32.50
2022-11-22T05:33:29.942Z,33.15
2022-11-22T05:34:10.988Z,34.49
2022-11-22T05:34:50.940Z,34.63
2022-11-22T05:35:31.022Z,33.88
2022-11-22T05:36:13.114Z,33.44
2022-11-22T05:36:53.004Z,32.22
2022-11-22T05:37:33.937Z,32.13
2022-11-22T05:38:14.052Z,32.17
2022-11-22T05:38:54.947Z,31.52
2022-11-22T05:39:34.975Z,31.42
2022-11-22T05:40:16.922Z,31.66
2022-11-22T05:40:56.963Z,31.31
2022-11-22T05:41:36.899Z,30.86
2022-11-22T05:42:30.929Z,30.08
2022-11-22T05:43:11.919Z,29.42
2022-11-22T05:43:52.984Z,29.35
2022-11-22T05:44:33.942Z,29.76
2022-11-22T05:45:15.021Z,28.99
2022-11-22T05:45:54.958Z,27.89
2022-11-22T05:46:36.976Z,27.42
2022-11-22T05:47:16.981Z,27.83
2022-11-22T05:47:56.995Z,27.34
2022-11-22T05:48:37.929Z,26.76
2022-11-22T05:49:18.047Z,26.76
2022-11-22T05:49:58.933Z,26.51
2022-11-22T05:50:38.948Z,26.35
2022-11-22T05:51:22.918Z,26.52
2022-11-22T05:52:02.975Z,26.76
2022-11-22T05:52:43.915Z,25.81
2022-11-22T05:53:24.978Z,25.44
2022-11-22T05:54:05.973Z,24.23
2022-11-22T05:54:46.013Z,23.25
2022-11-22T05:55:25.912Z,22.52
2022-11-22T05:56:14.000Z,22.44
2022-11-22T05:56:54.911Z,22.71
2022-11-22T05:57:34.976Z,22.70
2022-11-22T05:58:15.966Z,21.94
2022-11-22T05:58:56.994Z,21.49
2022-11-22T05:59:42.571Z,22.41
2022-11-22T06:00:25.442Z,22.00
2022-11-22T06:01:20.893Z,22.14
2022-11-22T06:02:01.030Z,22.33
2022-11-22T06:02:41.946Z,22.27
2022-11-22T06:03:22.124Z,21.96
2022-11-22T06:04:02.889Z,22.15
2022-11-22T06:04:49.956Z,22.51
2022-11-22T06:05:44.923Z,22.59
2022-11-22T06:06:38.936Z,22.45
2022-11-22T06:07:33.940Z,21.90
2022-11-22T06:08:27.914Z,22.02
2022-11-22T06:09:21.942Z,22.55
2022-11-22T06:10:08.920Z,22.60
2022-11-22T06:10:42.975Z,22.67
2022-11-22T06:11:32.912Z,23.15
2022-11-22T06:12:07.022Z,22.86
2022-11-22T06:12:53.920Z,23.15
2022-11-22T06:13:27.950Z,24.11
2022-11-22T06:14:15.915Z,24.38
2022-11-22T06:14:52.005Z,23.96
2022-11-22T06:15:32.967Z,23.41
2022-11-22T06:16:15.024Z,24.01
2022-11-22T06:16:58.040Z,24.67
2022-11-22T06:17:38.919Z,25.05
2022-11-22T06:18:19.020Z,25.00
2022-11-22T06:19:00.005Z,24.83
2022-11-22T06:19:39.914Z,25.38
2022-11-22T06:20:19.955Z,25.41
2022-11-22T06:21:07.894Z,25.83
2022-11-22T06:21:48.906Z,25.31
2022-11-22T06:22:28.901Z,24.79
2022-11-22T06:23:08.937Z,24.51
2022-11-22T06:23:49.882Z,25.54
2022-11-22T06:24:29.993Z,25.25
2022-11-22T06:25:10.904Z,25.27
2022-11-22T06:25:52.246Z,24.86
2022-11-22T06:26:46.916Z,25.23
2022-11-22T06:27:41.860Z,25.41
2022-11-22T06:28:35.903Z,24.99
2022-11-22T06:29:30.103Z,25.79
2022-11-22T06:30:24.984Z,25.54
2022-11-22T06:31:24.906Z,25.16
2022-11-22T06:32:11.894Z,25.41
2022-11-22T06:32:45.896Z,26.24
2022-11-22T06:33:32.892Z,26.92
2022-11-22T06:34:06.922Z,28.58
2022-11-22T06:34:53.893Z,29.15
2022-11-22T06:35:28.109Z,28.96
2022-11-22T06:36:30.893Z,30.35
2022-11-22T06:37:05.062Z,30.29
2022-11-22T06:37:45.892Z,29.74
2022-11-22T06:38:25.959Z,30.63
2022-11-22T06:39:06.927Z,32.80
2022-11-22T06:39:47.922Z,33.13
2022-11-22T06:40:27.842Z,31.01
2022-11-22T06:41:13.932Z,29.31
2022-11-22T06:41:53.841Z,28.65
2022-11-22T06:42:47.855Z,28.83
2022-11-22T06:43:48.799Z,28.96
2022-11-22T06:44:43.856Z,28.01
2022-11-22T06:45:37.868Z,28.31
2022-11-22T06:46:34.892Z,28.63
2022-11-22T06:47:28.894Z,29.36
2022-11-22T06:48:08.857Z,28.60
2022-11-22T06:48:49.948Z,27.66
2022-11-22T06:49:31.284Z,27.49
2022-11-22T06:50:12.760Z,27.39
2022-11-22T06:50:54.939Z,27.55
2022-11-22T06:51:36.948Z,27.54
2022-11-22T06:52:17.902Z,27.16
2022-11-22T06:52:58.866Z,26.83
2022-11-22T06:53:48.971Z,25.30
2022-11-22T06:54:29.901Z,25.24
2022-11-22T06:55:34.505Z,26.17
2022-11-22T06:56:20.943Z,27.19
2022-11-22T06:57:01.858Z,26.94
2022-11-22T06:57:41.990Z,26.75
2022-11-22T06:58:21.852Z,26.67
2022-11-22T06:59:03.936Z,26.55
2022-11-22T06:59:37.936Z,26.36
2022-11-22T07:00:25.853Z,26.41
2022-11-22T07:00:59.977Z,26.51
2022-11-22T07:01:46.932Z,26.05
2022-11-22T07:02:21.014Z,26.26
2022-11-22T07:03:07.847Z,26.14
2022-11-22T07:03:42.895Z,25.70
2022-11-22T07:04:23.888Z,25.41
2022-11-22T07:05:24.412Z,26.49
2022-11-22T07:06:04.009Z,25.64
2022-11-22T07:06:44.885Z,24.24
2022-11-22T07:07:24.920Z,24.23
2022-11-22T07:08:12.068Z,24.42
2022-11-22T07:08:54.846Z,24.38
2022-11-22T07:09:41.883Z,24.79
2022-11-22T07:10:35.954Z,24.56
2022-11-22T07:11:36.848Z,25.01
2022-11-22T07:12:30.826Z,25.33
2022-11-22T07:13:24.815Z,25.27
2022-11-22T07:14:19.864Z,25.89
2022-11-22T07:15:06.851Z,25.29
2022-11-22T07:15:40.840Z,25.08
2022-11-22T07:16:28.848Z,24.90
2022-11-22T07:17:02.889Z,24.88
2022-11-22T07:17:49.848Z,24.42
2022-11-22T07:18:23.927Z,24.00
2022-11-22T07:19:11.826Z,23.48
2022-11-22T07:19:45.904Z,23.39
2022-11-22T07:20:26.911Z,23.73
2022-11-22T07:21:15.344Z,23.44
2022-11-22T07:21:56.825Z,22.60
2022-11-22T07:22:36.892Z,22.44
2022-11-22T07:23:18.851Z,22.51
2022-11-22T07:24:01.973Z,22.45
2022-11-22T07:24:41.814Z,22.25
2022-11-22T07:25:21.871Z,22.35
2022-11-22T07:26:02.823Z,22.89
2022-11-22T07:26:42.880Z,23.27
2022-11-22T07:27:22.809Z,22.23
2022-11-22T07:28:02.831Z,22.95
2022-11-22T07:28:43.816Z,23.61
2022-11-22T07:29:37.910Z,23.85
2022-11-22T07:30:31.813Z,23.89
2022-11-22T07:31:20.830Z,23.61
2022-11-22T07:31:54.880Z,23.21
2022-11-22T07:32:42.827Z,23.58
2022-11-22T07:33:17.020Z,23.84
2022-11-22T07:34:04.810Z,23.86
2022-11-22T07:34:40.274Z,23.64
2022-11-22T07:35:26.819Z,23.60
2022-11-22T07:36:01.040Z,23.76
2022-11-22T07:36:41.846Z,23.99
2022-11-22T07:37:21.869Z,23.67
2022-11-22T07:38:01.821Z,23.17
2022-11-22T07:38:42.920Z,22.92
2022-11-22T07:39:22.815Z,23.15
2022-11-22T07:40:03.107Z,22.51
2022-11-22T07:40:43.784Z,21.95
2022-11-22T07:41:25.912Z,21.71
2022-11-22T07:42:06.868Z,21.51
2022-11-22T07:42:46.942Z,21.15
2022-11-22T07:43:27.797Z,20.93
2022-11-22T07:44:07.934Z,20.79
2022-11-22T07:44:47.776Z,21.29
2022-11-22T07:45:29.213Z,20.75
2022-11-22T07:46:12.794Z,20.75
2022-11-22T07:46:53.993Z,21.76
2022-11-22T07:47:34.860Z,22.20
2022-11-22T07:48:16.062Z,21.99
2022-11-22T07:48:56.802Z,21.88
2022-11-22T07:49:36.940Z,22.09
2022-11-22T07:50:18.834Z,22.34
2022-11-22T07:50:58.982Z,22.21
2022-11-22T07:51:39.799Z,21.74
2022-11-22T07:52:19.984Z,21.24
2022-11-22T07:53:11.481Z,21.77
2022-11-22T07:53:52.862Z,21.31
2022-11-22T07:54:33.777Z,20.81
2022-11-22T07:55:14.867Z,21.50
2022-11-22T07:55:55.812Z,21.64
2022-11-22T07:56:37.865Z,21.52
2022-11-22T07:57:18.799Z,20.99
2022-11-22T07:58:05.050Z,20.31
2022-11-22T07:58:45.815Z,20.15
2022-11-22T07:59:27.049Z,20.48
2022-11-22T08:00:08.783Z,20.60
2022-11-22T08:00:49.833Z,20.48
2022-11-22T08:01:30.843Z,20.96
2022-11-22T08:02:10.898Z,21.25
2022-11-22T08:02:51.790Z,21.02
2022-11-22T08:03:31.873Z,21.85
2022-11-22T08:04:11.824Z,22.01
2022-11-22T08:04:51.920Z,20.83
2022-11-22T08:05:32.770Z,20.90
2022-11-22T08:06:15.904Z,21.14
2022-11-22T08:06:55.767Z,20.61
2022-11-22T08:07:35.908Z,20.69
2022-11-22T08:08:15.803Z,20.49
2022-11-22T08:09:00.490Z,20.83
2022-11-22T08:09:42.788Z,20.06
2022-11-22T08:10:23.824Z,19.92
2022-11-22T08:11:04.766Z,19.94
2022-11-22T08:11:44.813Z,20.21
2022-11-22T08:12:24.743Z,20.70
2022-11-22T08:13:06.800Z,20.88
2022-11-22T08:13:47.752Z,21.11
2022-11-22T08:14:27.842Z,21.08
2022-11-22T08:15:09.811Z,20.59
2022-11-22T08:15:54.647Z,20.52
2022-11-22T08:16:35.780Z,20.46
2022-11-22T08:17:15.838Z,20.06
2022-11-22T08:17:55.741Z,19.21
2022-11-22T08:18:35.872Z,19.46
2022-11-22T08:19:16.763Z,20.00
2022-11-22T08:19:56.827Z,18.86
2022-11-22T08:20:37.793Z,18.20
2022-11-22T08:21:19.945Z,18.91
2022-11-22T08:22:00.765Z,18.75
2022-11-22T08:22:40.966Z,18.70
2022-11-22T08:23:20.760Z,18.75
2022-11-22T08:24:06.033Z,19.16
2022-11-22T08:24:45.765Z,18.92
2022-11-22T08:25:26.826Z,18.77
2022-11-22T08:26:06.800Z,18.20
2022-11-22T08:26:46.772Z,17.96
2022-11-22T08:27:26.763Z,18.56
2022-11-22T08:28:06.836Z,18.88
2022-11-22T08:28:48.751Z,18.51
2022-11-22T08:29:42.795Z,19.51
2022-11-22T08:30:36.750Z,20.13
2022-11-22T08:31:25.763Z,20.06
2022-11-22T08:31:59.806Z,19.91
2022-11-22T08:32:46.720Z,20.41
2022-11-22T08:33:20.770Z,20.14
2022-11-22T08:34:07.757Z,19.65
2022-11-22T08:34:46.870Z,19.85
2022-11-22T08:35:33.738Z,20.36
2022-11-22T08:36:07.861Z,20.01
2022-11-22T08:36:47.756Z,20.04
2022-11-22T08:37:27.781Z,20.59
2022-11-22T08:38:07.760Z,20.29
2022-11-22T08:38:48.808Z,20.26
2022-11-22T08:39:29.883Z,20.46
2022-11-22T08:40:10.798Z,20.55
2022-11-22T08:40:50.720Z,19.81
2022-11-22T08:41:31.801Z,20.15
2022-11-22T08:42:13.756Z,20.61
2022-11-22T08:42:53.811Z,20.48
2022-11-22T08:43:34.714Z,20.99
2022-11-22T08:44:14.759Z,20.80
2022-11-22T08:44:54.714Z,21.36
2022-11-22T08:45:34.790Z,20.48
2022-11-22T08:46:14.712Z,20.38
2022-11-22T08:46:55.776Z,20.52
2022-11-22T08:47:35.760Z,20.39
2022-11-22T08:48:21.893Z,20.79
2022-11-22T08:49:03.708Z,20.51
2022-11-22T08:49:43.779Z,20.16
2022-11-22T08:50:24.800Z,20.41
2022-11-22T08:51:11.792Z,20.23
2022-11-22T08:51:52.704Z,19.66
2022-11-22T08:52:32.911Z,19.63
2022-11-22T08:53:12.743Z,20.33
2022-11-22T08:53:53.820Z,20.16
2022-11-22T08:54:37.453Z,20.31
2022-11-22T08:55:17.780Z,20.17
2022-11-22T08:55:58.704Z,19.70
2022-11-22T08:56:38.772Z,20.34
2022-11-22T08:57:18.752Z,20.23
2022-11-22T08:57:58.793Z,20.49
2022-11-22T08:58:40.754Z,21.38
2022-11-22T08:59:20.813Z,20.91
2022-11-22T09:00:00.736Z,21.17
2022-11-22T09:00:40.795Z,22.20
2022-11-22T09:02:25.724Z,22.06
2022-11-22T09:02:59.809Z,22.21
2022-11-22T09:03:47.737Z,22.34
2022-11-22T09:04:21.717Z,21.50
2022-11-22T09:05:08.896Z,20.41
2022-11-22T09:09:02.787Z,19.69
2022-11-22T09:09:45.203Z,19.49
2022-11-22T09:10:32.699Z,19.61
2022-11-22T09:11:11.713Z,19.84
2022-11-22T09:11:58.688Z,19.52
2022-11-22T09:12:32.740Z,19.92
2022-11-22T09:13:19.754Z,19.88
2022-11-22T09:14:00.726Z,19.83
2022-11-22T09:14:54.720Z,20.08
2022-11-22T09:15:48.694Z,19.75
2022-11-22T09:16:42.685Z,20.38
2022-11-22T09:17:36.718Z,19.83
2022-11-22T09:18:30.669Z,19.81
2022-11-22T09:19:17.673Z,20.39
2022-11-22T09:19:51.836Z,20.79
2022-11-22T09:20:38.680Z,21.40
2022-11-22T09:21:17.892Z,21.26
2022-11-22T09:22:04.669Z,21.36
2022-11-22T09:22:38.722Z,21.11
2022-11-22T09:23:25.669Z,21.91